Aviation Digital Data Service (ADDS)

Output produced by METARs form (1327 UTC 09 December 2019)
found at http://aviationweather.gov/metar/data/
 
METAR text: KRNT 091316Z AUTO 00000KT 3SM BR BKN006 OVC012 05/04 A3026 RMK AO2 T00500044
Conditions at: KRNT (RENTON , WA, US) observed 1316 UTC 09 December 2019
Temperature: 5.0°C (41°F)
Dewpoint: 4.4°C (40°F) [RH = 96%]
Pressure (altimeter): 30.26 inches Hg (1024.8 mb)
Winds: calm
Visibility: 3 miles ( 5 km)
Ceiling: 600 feet AGL
Clouds: broken clouds at 600 feet AGL
overcast cloud deck at 1200 feet AGL
Weather: BR  (mist)

METAR text: KRNT 091253Z AUTO 00000KT 6SM BR FEW004 OVC011 06/04 A3025 RMK AO2 SLP248 T00560044
Conditions at: KRNT (RENTON , WA, US) observed 1253 UTC 09 December 2019
Temperature: 5.6°C (42°F)
Dewpoint: 4.4°C (40°F) [RH = 92%]
Pressure (altimeter): 30.25 inches Hg (1024.5 mb)
[Sea-level pressure: 1024.8 mb]
Winds: calm
Visibility: 6 miles (10 km)
Ceiling: 1100 feet AGL
Clouds: few clouds at 400 feet AGL
overcast cloud deck at 1100 feet AGL
Weather: BR  (mist)

METAR text: KRNT 091246Z AUTO 00000KT 6SM BR FEW004 OVC009 06/05 A3025 RMK AO2 CIG 008V012 T00560050
Conditions at: KRNT (RENTON , WA, US) observed 1246 UTC 09 December 2019
Temperature: 5.6°C (42°F)
Dewpoint: 5.0°C (41°F) [RH = 96%]
Pressure (altimeter): 30.25 inches Hg (1024.5 mb)
Winds: calm
Visibility: 6 miles (10 km)
Ceiling: 900 feet AGL
Clouds: few clouds at 400 feet AGL
overcast cloud deck at 900 feet AGL
Weather: BR  (mist)

METAR text: KRNT 091153Z AUTO 00000KT 7SM OVC006 06/05 A3025 RMK AO2 SLP248 T00560050 10083 20044 58000
Conditions at: KRNT (RENTON , WA, US) observed 1153 UTC 09 December 2019
Temperature: 5.6°C (42°F)
Dewpoint: 5.0°C (41°F) [RH = 96%]
Pressure (altimeter): 30.25 inches Hg (1024.5 mb)
[Sea-level pressure: 1024.8 mb]
Winds: calm
Visibility: 7 miles (11 km)
Ceiling: 600 feet AGL
Clouds: overcast cloud deck at 600 feet AGL
Weather: automated observation with no human augmentation;
there may or may not be significant weather present at this time